Time;durP1;ratioP1;P1;durP2;ratioP2;P2;SDS_P1;SDS_P2;PMS_P1;PMS_P2;Temp;Humidity;BMP_temperature;BMP_pressure;BME280_temperature;BME280_humidity;BME280_pressure;Samples;Min_cycle;Max_cycle;Signal;HPM_P1;HPM_P2
2021/09/18 00:01:10;;;;;;;10.68;5.70;;;;;;;9.79;83.60;101023.56;5084230;28;20016;-68
2021/09/18 00:03:35;;;;;;;9.27;5.40;;;;;;;9.79;83.05;101027.91;5086722;28;20020;-68
2021/09/18 00:06:01;;;;;;;9.80;5.10;;;;;;;9.78;83.67;101026.16;5068677;28;20032;-69
2021/09/18 00:08:26;;;;;;;10.98;5.65;;;;;;;9.79;83.29;101025.31;5068398;28;20024;-69
2021/09/18 00:10:52;;;;;;;8.68;5.30;;;;;;;9.76;83.17;101020.13;5086742;28;20086;-67
2021/09/18 00:13:17;;;;;;;8.98;5.65;;;;;;;9.76;83.37;101017.53;5086627;28;20050;-68
2021/09/18 00:15:43;;;;;;;7.93;5.60;;;;;;;9.77;83.43;101025.31;5086900;28;20013;-68
2021/09/18 00:18:08;;;;;;;10.05;5.65;;;;;;;9.82;82.80;101016.69;5068595;28;20025;-68
2021/09/18 00:20:34;;;;;;;9.48;5.47;;;;;;;9.79;83.12;101027.91;5068570;28;20512;-69
2021/09/18 00:22:59;;;;;;;7.95;5.05;;;;;;;9.77;83.28;101027.03;5086629;28;20047;-68
2021/09/18 00:25:25;;;;;;;8.02;5.07;;;;;;;9.70;82.83;101014.88;5086944;28;20031;-68
2021/09/18 00:27:50;;;;;;;8.45;4.57;;;;;;;9.67;83.02;101021.81;5086478;28;20020;-68
2021/09/18 00:30:16;;;;;;;7.35;4.68;;;;;;;9.71;83.25;101030.47;5086054;28;20032;-68
2021/09/18 00:32:41;;;;;;;10.20;5.50;;;;;;;9.66;83.33;101022.66;5086277;28;20027;-68
2021/09/18 00:35:07;;;;;;;6.30;4.40;;;;;;;9.72;83.09;101024.44;5086189;28;20050;-68
2021/09/18 00:37:33;;;;;;;10.73;5.63;;;;;;;9.66;82.61;101026.97;5086166;28;20070;-68
2021/09/18 00:39:58;;;;;;;10.63;6.22;;;;;;;9.68;83.02;101027.84;5085922;28;20024;-68
2021/09/18 00:42:24;;;;;;;8.50;5.18;;;;;;;9.68;83.45;101033.03;5085921;28;20024;-68
2021/09/18 00:44:51;;;;;;;7.75;5.40;;;;;;;9.70;83.42;101033.91;5086076;28;20035;-68
2021/09/18 00:47:17;;;;;;;15.50;6.25;;;;;;;9.71;83.27;101032.19;5085912;28;20052;-68
2021/09/18 00:49:43;;;;;;;11.23;4.88;;;;;;;9.68;83.22;101027.84;5085889;28;20038;-68
2021/09/18 00:52:08;;;;;;;9.40;5.10;;;;;;;9.72;83.29;101039.09;5085891;28;20154;-69
2021/09/18 00:54:33;;;;;;;11.13;5.40;;;;;;;9.65;83.58;101041.66;5085703;28;20016;-68
2021/09/18 00:57:01;;;;;;;7.85;5.38;;;;;;;9.66;83.66;101026.97;5085725;28;20480;-68
2021/09/18 00:59:26;;;;;;;11.60;5.88;;;;;;;9.70;83.49;101033.03;5085576;28;20024;-68
2021/09/18 01:01:52;;;;;;;7.72;5.40;;;;;;;9.67;83.42;101034.78;5085687;28;20108;-68
2021/09/18 01:04:17;;;;;;;8.98;5.32;;;;;;;9.72;83.28;101032.19;5085513;28;20182;-68
2021/09/18 01:06:42;;;;;;;9.75;5.70;;;;;;;9.72;83.09;101026.13;5085896;28;20379;-68
2021/09/18 01:09:08;;;;;;;8.10;5.30;;;;;;;9.70;83.30;101033.91;5067382;28;20029;-68
2021/09/18 01:11:33;;;;;;;8.02;5.07;;;;;;;9.71;83.43;101033.06;5085604;28;20047;-68
2021/09/18 01:13:59;;;;;;;12.48;5.32;;;;;;;9.71;83.31;101032.19;5084867;28;20032;-68
2021/09/18 01:16:25;;;;;;;8.15;5.03;;;;;;;9.69;83.57;101029.59;5085405;28;20048;-68
2021/09/18 01:18:51;;;;;;;8.18;4.78;;;;;;;9.72;83.69;101039.09;5085648;28;20024;-68
2021/09/18 01:21:17;;;;;;;11.32;5.55;;;;;;;9.73;83.00;101036.50;5085459;28;20009;-68
2021/09/18 01:23:43;;;;;;;11.25;5.85;;;;;;;9.72;83.70;101042.56;5085051;28;20024;-68
2021/09/18 01:26:09;;;;;;;10.35;5.47;;;;;;;9.71;83.33;101039.97;5085311;28;20118;-68
2021/09/18 01:28:36;;;;;;;11.85;5.88;;;;;;;9.71;83.64;101042.56;5085274;28;20118;-68
2021/09/18 01:31:01;;;;;;;11.48;5.28;;;;;;;9.71;83.95;101051.22;5084942;28;20043;-69
2021/09/18 01:33:27;;;;;;;8.98;5.60;;;;;;;9.74;83.66;101046.06;5067133;28;20020;-69
2021/09/18 01:35:52;;;;;;;7.38;5.00;;;;;;;9.73;83.64;101053.81;5085272;28;20059;-69
2021/09/18 01:38:17;;;;;;;8.68;5.57;;;;;;;9.74;83.98;101047.75;5084825;28;20046;-69
2021/09/18 01:40:47;;;;;;;9.75;7.25;;;;;;;9.75;83.49;101041.72;5067018;28;20020;-68
2021/09/18 01:43:12;;;;;;;9.73;5.40;;;;;;;9.71;83.56;101040.84;5085116;28;20024;-68
2021/09/18 01:45:39;;;;;;;9.38;5.10;;;;;;;9.71;83.33;101050.34;5084799;28;20020;-68
2021/09/18 01:48:07;;;;;;;8.25;5.38;;;;;;;9.62;83.71;101041.66;5084928;28;20047;-68
2021/09/18 01:50:45;;;;;;;9.75;5.55;;;;;;;9.63;83.83;101045.97;5084503;28;20024;-68
2021/09/18 01:53:11;;;;;;;10.20;5.22;;;;;;;9.69;83.16;101054.66;5084652;28;20027;-68
2021/09/18 01:55:37;;;;;;;9.30;5.78;;;;;;;9.65;83.30;101046.84;5084619;28;20020;-68
2021/09/18 01:58:03;;;;;;;9.13;5.20;;;;;;;9.61;83.86;101045.09;5084776;28;20028;-70
2021/09/18 02:00:30;;;;;;;7.85;4.93;;;;;;;9.59;84.10;101052.00;5084414;28;20024;-69
2021/09/18 02:02:56;;;;;;;10.02;5.28;;;;;;;9.62;83.62;101052.03;5084607;28;20024;-67
2021/09/18 02:05:26;;;;;;;10.13;5.55;;;;;;;9.58;83.65;101052.88;5084511;28;20017;-68
2021/09/18 02:07:53;;;;;;;7.65;4.65;;;;;;;9.60;83.41;101055.47;5084422;28;20038;-69
2021/09/18 02:10:22;;;;;;;8.57;5.68;;;;;;;9.61;83.26;101059.78;5082521;28;20020;-69
2021/09/18 02:12:48;;;;;;;10.95;6.03;;;;;;;9.65;82.77;101046.84;5083329;28;20021;-69
2021/09/18 02:15:15;;;;;;;9.32;5.22;;;;;;;9.66;82.88;101052.91;5084118;28;20028;-69
2021/09/18 02:17:41;;;;;;;9.48;5.60;;;;;;;9.59;83.41;101056.31;5083823;28;20523;-69
2021/09/18 02:20:10;;;;;;;13.80;6.53;;;;;;;9.61;83.04;101054.59;5083877;28;20139;-69
2021/09/18 02:22:36;;;;;;;9.38;5.85;;;;;;;9.61;83.07;101049.41;5083316;28;20056;-69
2021/09/18 02:25:03;;;;;;;10.55;5.47;;;;;;;9.66;82.26;101060.69;5082403;28;20025;-69
2021/09/18 02:27:28;;;;;;;6.60;4.90;;;;;;;9.56;82.78;101051.97;5083424;28;20024;-69
2021/09/18 02:29:54;;;;;;;8.60;5.78;;;;;;;9.53;83.37;101050.25;5084247;28;20380;-69
2021/09/18 02:32:19;;;;;;;9.40;4.53;;;;;;;9.59;82.95;101059.78;5084374;28;20080;-69
2021/09/18 02:34:44;;;;;;;8.27;5.40;;;;;;;9.52;82.89;101050.25;5084385;28;20026;-69
2021/09/18 02:37:10;;;;;;;8.27;5.25;;;;;;;9.48;83.50;101056.25;5084576;28;20512;-68
2021/09/18 02:39:35;;;;;;;7.97;5.10;;;;;;;9.49;83.11;101056.25;5083774;28;20028;-69
2021/09/18 02:42:00;;;;;;;11.02;5.47;;;;;;;9.46;82.95;101048.47;5083946;28;20016;-68
2021/09/18 02:44:26;;;;;;;7.45;4.68;;;;;;;9.49;83.41;101052.81;5083866;28;20024;-68
2021/09/18 02:46:51;;;;;;;8.07;4.95;;;;;;;9.53;82.82;101058.03;5083945;28;20024;-70
2021/09/18 02:49:16;;;;;;;8.85;5.15;;;;;;;9.48;83.18;101064.91;5083763;28;20500;-68
2021/09/18 02:51:42;;;;;;;8.15;5.18;;;;;;;9.47;83.18;101058.00;5083643;28;20072;-68
2021/09/18 02:54:08;;;;;;;10.27;5.05;;;;;;;9.47;83.14;101052.81;5083363;28;20054;-69
2021/09/18 02:56:33;;;;;;;7.57;4.85;;;;;;;9.47;83.23;101049.34;5083636;28;20020;-68
2021/09/18 02:58:58;;;;;;;10.15;5.55;;;;;;;9.47;83.41;101054.53;5083626;28;20043;-67
2021/09/18 03:01:24;;;;;;;8.38;5.32;;;;;;;9.49;83.51;101056.25;5083836;28;20020;-67
2021/09/18 03:03:49;;;;;;;8.88;5.55;;;;;;;9.49;83.86;101068.38;5083500;28;20028;-68
2021/09/18 03:06:14;;;;;;;9.02;4.68;;;;;;;9.49;83.61;101055.41;5083561;28;20449;-68
2021/09/18 03:08:40;;;;;;;10.38;6.32;;;;;;;9.48;83.76;101064.03;5083475;28;20024;-68
2021/09/18 03:11:06;;;;;;;7.75;5.00;;;;;;;9.49;83.61;101061.44;5083446;28;20063;-67
2021/09/18 03:13:31;;;;;;;10.68;5.30;;;;;;;9.48;83.65;101054.53;5083541;28;20031;-68
2021/09/18 03:15:57;;;;;;;9.32;5.72;;;;;;;9.49;83.53;101069.22;5083636;28;20514;-68
2021/09/18 03:18:22;;;;;;;10.73;6.55;;;;;;;9.48;83.85;101067.50;5083419;28;20028;-69
2021/09/18 03:20:48;;;;;;;10.27;5.03;;;;;;;9.49;83.78;101073.56;5083386;28;20020;-69
2021/09/18 03:23:13;;;;;;;9.10;5.60;;;;;;;9.48;83.68;101064.03;5083130;28;20043;-69
2021/09/18 03:25:42;;;;;;;11.13;5.82;;;;;;;9.46;83.98;101070.91;5083267;28;20027;-68
2021/09/18 03:28:08;;;;;;;8.35;5.50;;;;;;;9.49;83.93;101076.16;5083610;28;20017;-69
2021/09/18 03:30:33;;;;;;;12.88;5.10;;;;;;;9.47;84.13;101067.47;5083286;28;20020;-69
2021/09/18 03:32:58;;;;;;;8.27;5.80;;;;;;;9.46;83.88;101068.31;5083325;28;20504;-69
2021/09/18 03:35:24;;;;;;;7.78;5.32;;;;;;;9.49;84.27;101076.16;5084372;28;20020;-69
2021/09/18 03:37:49;;;;;;;8.52;5.05;;;;;;;9.46;84.04;101071.78;5089889;28;20103;-68
2021/09/18 03:40:15;;;;;;;8.52;5.20;;;;;;;9.47;84.03;101070.94;5089787;28;20021;-68
2021/09/18 03:42:40;;;;;;;11.35;5.80;;;;;;;9.50;83.88;101077.88;5089743;28;20111;-69
2021/09/18 03:45:06;;;;;;;12.73;5.70;;;;;;;9.49;84.02;101076.16;5090022;28;20377;-69
2021/09/18 03:47:31;;;;;;;8.40;6.00;;;;;;;9.52;83.87;101083.94;5089746;28;20032;-68
2021/09/18 03:49:57;;;;;;;6.55;4.80;;;;;;;9.51;83.63;101079.59;5089562;28;20142;-69
2021/09/18 03:52:26;;;;;;;10.85;5.72;;;;;;;9.49;83.75;101081.31;5089847;28;20111;-68
2021/09/18 03:54:52;;;;;;;13.15;5.78;;;;;;;9.48;84.17;101083.03;5071374;28;20059;-69
2021/09/18 03:57:17;;;;;;;8.23;5.63;;;;;;;9.50;83.88;101081.34;5089781;28;20414;-69
2021/09/18 03:59:43;;;;;;;8.77;5.07;;;;;;;9.50;83.72;101083.06;5089575;28;20050;-68
2021/09/18 04:02:08;;;;;;;10.75;6.60;;;;;;;9.49;84.07;101087.34;5071139;28;20039;-69
2021/09/18 04:04:33;;;;;;;10.20;6.20;;;;;;;9.53;83.35;101090.84;5088977;28;20047;-68
2021/09/18 04:06:59;;;;;;;9.52;5.40;;;;;;;9.53;83.25;101093.44;5089239;28;20071;-68
2021/09/18 04:09:24;;;;;;;7.10;5.15;;;;;;;9.46;83.44;101097.72;5089122;28;20031;-69
2021/09/18 04:11:50;;;;;;;8.32;4.15;;;;;;;9.49;83.48;101102.06;5089130;28;20079;-68
2021/09/18 04:14:15;;;;;;;9.38;5.53;;;;;;;9.48;83.39;101092.53;5071070;28;20123;-68
2021/09/18 04:16:40;;;;;;;10.15;6.07;;;;;;;9.45;83.56;101095.09;5088904;28;20024;-68
2021/09/18 04:19:06;;;;;;;9.70;5.18;;;;;;;9.44;83.91;101095.97;5088952;28;20452;-68
2021/09/18 04:21:31;;;;;;;8.55;5.70;;;;;;;9.45;83.67;101101.16;5088967;28;20044;-70
2021/09/18 04:23:56;;;;;;;11.45;5.40;;;;;;;9.41;83.60;101087.31;5088579;28;20105;-69
2021/09/18 04:26:22;;;;;;;6.82;4.82;;;;;;;9.41;84.03;101109.75;5070656;28;20028;-69
2021/09/18 04:28:47;;;;;;;10.30;5.47;;;;;;;9.41;83.96;101100.25;5089006;28;20171;-71
2021/09/18 04:31:13;;;;;;;8.90;4.88;;;;;;;9.40;83.87;101108.91;5070809;28;20025;-69
2021/09/18 04:33:38;;;;;;;10.70;5.95;;;;;;;9.42;83.66;101102.00;5070785;28;20028;-69
2021/09/18 04:36:04;;;;;;;11.45;5.53;;;;;;;9.39;83.84;101112.34;5089121;28;20380;-68
2021/09/18 04:38:29;;;;;;;9.32;5.40;;;;;;;9.42;83.22;101098.56;5088739;28;20028;-69
2021/09/18 04:40:55;;;;;;;11.90;4.88;;;;;;;9.46;83.53;101108.06;5088801;28;20021;-68
2021/09/18 04:43:21;;;;;;;8.50;5.85;;;;;;;9.49;82.76;101099.47;5088664;28;20149;-70
2021/09/18 04:45:46;;;;;;;9.63;6.13;;;;;;;9.44;83.27;101104.59;5088791;28;20034;-69
2021/09/18 04:48:11;;;;;;;7.82;5.15;;;;;;;9.41;83.48;101101.97;5085433;28;20016;-69
2021/09/18 04:50:37;;;;;;;8.25;5.40;;;;;;;9.39;84.06;101109.75;5085406;28;20020;-69
2021/09/18 04:53:03;;;;;;;9.20;5.43;;;;;;;9.36;84.05;101101.09;5085376;28;20039;-68
2021/09/18 04:55:28;;;;;;;10.20;5.60;;;;;;;9.41;84.10;101110.63;5085400;28;20033;-70
2021/09/18 04:57:53;;;;;;;11.45;6.10;;;;;;;9.42;84.40;101114.94;5085621;28;20032;-69
2021/09/18 05:00:19;;;;;;;8.05;5.05;;;;;;;9.50;84.16;101115.03;5085338;28;20021;-68
2021/09/18 05:02:45;;;;;;;10.13;5.18;;;;;;;9.46;84.21;101117.56;5085390;28;20024;-69
2021/09/18 05:05:10;;;;;;;8.60;5.15;;;;;;;9.46;83.98;101125.34;5085249;28;20020;-69
2021/09/18 05:07:36;;;;;;;9.85;6.35;;;;;;;9.50;84.23;101125.41;5085347;28;20429;-69
2021/09/18 05:10:03;;;;;;;6.80;4.60;;;;;;;9.50;84.45;101121.94;5084944;28;20027;-69
2021/09/18 05:12:28;;;;;;;11.70;5.78;;;;;;;9.52;84.53;101128.00;5085439;28;20063;-68
2021/09/18 05:14:53;;;;;;;9.20;5.43;;;;;;;9.56;84.37;101134.94;5085061;28;20016;-69
2021/09/18 05:17:19;;;;;;;7.57;4.97;;;;;;;9.57;84.17;101134.06;5085273;28;20029;-69
2021/09/18 05:19:44;;;;;;;10.35;5.47;;;;;;;9.53;84.50;101135.78;5085086;28;20016;-73
2021/09/18 05:22:09;;;;;;;13.52;6.20;;;;;;;9.56;84.48;101137.53;5084995;28;20540;-69
2021/09/18 05:24:35;;;;;;;7.93;5.53;;;;;;;9.55;84.47;101144.44;5084868;28;20029;-67
2021/09/18 05:27:00;;;;;;;9.45;5.55;;;;;;;9.56;84.79;101145.31;5084873;28;20101;-67
2021/09/18 05:29:25;;;;;;;10.60;5.30;;;;;;;9.62;84.34;101140.16;5084880;28;20436;-67
2021/09/18 05:31:51;;;;;;;7.20;5.18;;;;;;;9.63;84.36;101148.81;5084681;28;20024;-68
2021/09/18 05:34:16;;;;;;;10.93;5.07;;;;;;;9.62;84.35;101145.34;5084909;28;20025;-67
2021/09/18 05:36:42;;;;;;;7.65;5.25;;;;;;;9.61;84.49;101143.63;5084825;28;20569;-68
2021/09/18 05:39:07;;;;;;;11.82;5.72;;;;;;;9.61;85.05;101143.63;5084632;28;20020;-68
2021/09/18 05:41:32;;;;;;;10.27;5.47;;;;;;;9.62;84.90;101145.34;5084624;28;20013;-67
2021/09/18 05:43:58;;;;;;;9.55;5.03;;;;;;;9.66;84.52;101136.72;5084707;28;20029;-68
2021/09/18 05:46:23;;;;;;;9.93;5.03;;;;;;;9.66;84.83;101136.72;5084405;28;20024;-67
2021/09/18 05:48:48;;;;;;;13.10;5.97;;;;;;;9.69;84.81;101145.38;5084404;28;20084;-68
2021/09/18 05:51:14;;;;;;;6.63;4.70;;;;;;;9.71;84.69;101146.28;5084406;28;20031;-69
2021/09/18 05:53:39;;;;;;;10.88;5.45;;;;;;;9.72;84.35;101137.63;5084045;28;20021;-68
2021/09/18 05:56:05;;;;;;;11.82;5.70;;;;;;;9.70;84.82;101144.53;5084305;28;20509;-68
2021/09/18 05:58:30;;;;;;;7.97;5.13;;;;;;;9.75;84.75;101145.44;5084104;28;20044;-68
2021/09/18 06:00:56;;;;;;;9.02;5.15;;;;;;;9.78;85.01;101153.22;5084219;28;20045;-67
2021/09/18 06:03:21;;;;;;;7.97;5.18;;;;;;;9.83;84.61;101156.72;5084435;28;20056;-68
2021/09/18 06:05:46;;;;;;;10.60;5.00;;;;;;;9.84;84.91;101158.47;5084780;28;20028;-68
2021/09/18 06:08:12;;;;;;;12.80;5.35;;;;;;;9.89;84.70;101161.06;5084680;28;20032;-68
2021/09/18 06:10:37;;;;;;;9.85;5.65;;;;;;;9.91;84.26;101168.03;5084214;28;20298;-69
2021/09/18 06:13:03;;;;;;;11.18;5.70;;;;;;;9.92;84.34;101171.47;5099993;28;20063;-69
2021/09/18 06:15:28;;;;;;;8.40;5.22;;;;;;;9.95;84.40;101168.06;5066503;28;20029;-68
2021/09/18 06:17:53;;;;;;;9.38;5.07;;;;;;;9.95;84.60;101168.06;5084360;28;20059;-67
2021/09/18 06:20:19;;;;;;;9.20;5.47;;;;;;;9.99;84.39;101170.66;5084311;28;20377;-67
2021/09/18 06:22:44;;;;;;;7.82;5.10;;;;;;;10.02;84.68;101164.63;5084238;28;20116;-68
2021/09/18 06:25:12;;;;;;;8.32;5.40;;;;;;;10.07;84.42;101173.31;5083882;28;20028;-67
2021/09/18 06:27:38;;;;;;;8.05;5.20;;;;;;;10.08;84.46;101172.44;5084037;28;20043;-67
2021/09/18 06:30:05;;;;;;;8.95;5.55;;;;;;;10.09;84.73;101174.19;5083924;28;20305;-67
2021/09/18 06:32:31;;;;;;;10.00;6.30;;;;;;;10.12;84.84;101176.81;5083840;28;20047;-67
2021/09/18 06:34:56;;;;;;;10.63;5.38;;;;;;;10.16;84.79;101178.56;5083987;28;20020;-67
2021/09/18 06:37:21;;;;;;;9.63;5.30;;;;;;;10.17;84.37;101172.50;5065874;28;20494;-67
2021/09/18 06:39:47;;;;;;;9.50;4.78;;;;;;;10.22;84.46;101187.25;5083674;28;20020;-68
2021/09/18 06:42:12;;;;;;;8.52;5.38;;;;;;;10.25;84.89;101182.94;5084038;28;20080;-68
2021/09/18 06:44:38;;;;;;;7.28;5.05;;;;;;;10.27;84.32;101182.94;5083659;28;20017;-68
2021/09/18 06:47:04;;;;;;;9.85;5.20;;;;;;;10.33;84.64;101189.88;5083619;28;20020;-67
2021/09/18 06:49:30;;;;;;;7.47;4.65;;;;;;;10.34;84.71;101191.63;5083721;28;20035;-67
2021/09/18 06:51:55;;;;;;;9.18;5.35;;;;;;;10.35;84.71;101194.22;5083543;28;20028;-68
2021/09/18 06:54:21;;;;;;;8.10;4.65;;;;;;;10.37;84.80;101194.22;5083471;28;20066;-67
2021/09/18 06:56:46;;;;;;;8.27;5.22;;;;;;;10.43;84.61;101193.41;5083713;28;20031;-67
2021/09/18 06:59:11;;;;;;;7.68;4.90;;;;;;;10.47;84.51;101192.56;5083549;28;20028;-68
2021/09/18 07:01:37;;;;;;;11.13;5.18;;;;;;;10.44;84.31;101188.22;5083659;28;20040;-67
2021/09/18 07:04:02;;;;;;;8.88;4.95;;;;;;;10.50;84.39;101198.66;5065127;28;20021;-67
2021/09/18 07:06:27;;;;;;;7.90;5.60;;;;;;;10.55;84.09;101201.28;5083203;28;20032;-67
2021/09/18 07:08:53;;;;;;;8.57;5.95;;;;;;;10.61;84.49;101206.50;5083293;28;20020;-68
2021/09/18 07:11:19;;;;;;;7.90;5.65;;;;;;;10.61;83.94;101206.50;5082782;28;20080;-68
2021/09/18 07:13:45;;;;;;;7.45;5.25;;;;;;;10.65;83.67;101209.97;5083004;28;20024;-66
2021/09/18 07:16:10;;;;;;;8.38;5.07;;;;;;;10.69;84.23;101213.47;5083225;28;20384;-67
2021/09/18 07:18:36;;;;;;;7.25;4.78;;;;;;;10.75;84.52;101211.75;5083297;28;20080;-67
2021/09/18 07:21:01;;;;;;;6.03;4.70;;;;;;;10.82;84.48;101211.75;5083446;28;20043;-65
2021/09/18 07:23:27;;;;;;;7.57;4.55;;;;;;;10.86;84.06;101209.16;5083565;28;20464;-66
2021/09/18 07:25:52;;;;;;;6.65;5.30;;;;;;;10.95;84.11;101216.16;5083849;28;20016;-72
2021/09/18 07:28:19;;;;;;;8.70;5.18;;;;;;;11.03;83.69;101213.56;5065101;28;20016;-70
2021/09/18 07:30:44;;;;;;;8.23;5.15;;;;;;;11.14;83.54;101222.25;5083344;28;20013;-70
2021/09/18 07:33:09;;;;;;;8.13;4.72;;;;;;;11.26;83.93;101228.34;5083227;28;20086;-71
2021/09/18 07:35:36;;;;;;;6.68;4.32;;;;;;;11.29;83.29;101217.97;5064855;28;20043;-71
2021/09/18 07:38:05;;;;;;;8.48;4.78;;;;;;;11.32;82.36;101222.28;5083070;28;20021;-71
2021/09/18 07:40:32;;;;;;;8.38;4.35;;;;;;;11.38;81.19;101223.16;5082841;28;20009;-70
2021/09/18 07:42:58;;;;;;;8.88;5.32;;;;;;;11.39;81.31;101231.81;5082939;28;20140;-71
2021/09/18 07:45:24;;;;;;;9.02;4.95;;;;;;;11.40;82.08;101215.38;5083024;28;20032;-71
2021/09/18 07:47:49;;;;;;;10.00;4.50;;;;;;;11.50;82.13;101224.06;5064930;28;20549;-70
2021/09/18 07:50:15;;;;;;;7.20;4.70;;;;;;;11.56;81.69;101236.19;5082894;28;20115;-70
2021/09/18 07:52:40;;;;;;;6.22;4.38;;;;;;;11.62;81.01;101233.59;5082943;28;20024;-70
2021/09/18 07:55:08;;;;;;;7.68;5.03;;;;;;;11.64;81.13;101222.34;5064641;28;20032;-70
2021/09/18 07:57:33;;;;;;;7.15;4.35;;;;;;;11.81;79.15;101226.66;5065036;28;20024;-71
2021/09/18 07:59:59;;;;;;;9.13;5.32;;;;;;;11.68;80.27;101222.34;5064743;28;20108;-70
2021/09/18 08:02:24;;;;;;;7.90;4.43;;;;;;;11.74;79.59;101233.59;5082997;28;20035;-72
2021/09/18 08:04:50;;;;;;;9.68;4.97;;;;;;;11.73;79.21;101225.78;5082759;28;20032;-71
2021/09/18 08:07:18;;;;;;;10.15;4.90;;;;;;;11.67;79.94;101217.97;5082760;28;20104;-71
2021/09/18 08:09:43;;;;;;;7.38;4.20;;;;;;;11.74;80.44;101224.94;5082710;28;20028;-70
2021/09/18 08:12:09;;;;;;;8.90;4.10;;;;;;;11.79;80.13;101233.59;5083084;28;20021;-72
2021/09/18 08:14:34;;;;;;;7.82;4.60;;;;;;;11.83;79.96;101232.72;5082497;28;20032;-70
2021/09/18 08:17:00;;;;;;;7.65;3.90;;;;;;;11.86;80.07;101222.31;5082545;28;20108;-70
2021/09/18 08:19:25;;;;;;;5.65;3.50;;;;;;;12.00;78.59;101224.03;5082860;28;20021;-72
2021/09/18 08:21:50;;;;;;;7.50;4.13;;;;;;;11.99;78.45;101233.59;5064344;28;20043;-71
2021/09/18 08:24:17;;;;;;;7.10;4.45;;;;;;;12.06;77.66;101234.44;5067753;28;20048;-70
2021/09/18 08:26:43;;;;;;;8.35;4.40;;;;;;;12.20;76.11;101241.41;5086113;28;20490;-70
2021/09/18 08:29:09;;;;;;;9.00;3.95;;;;;;;12.10;77.07;101238.81;5068564;28;20055;-70
2021/09/18 08:31:34;;;;;;;8.45;4.38;;;;;;;12.16;77.34;101244.88;5086135;28;20044;-71
2021/09/18 08:34:00;;;;;;;9.15;4.32;;;;;;;12.25;77.91;101250.91;5086062;28;20063;-70
2021/09/18 08:36:25;;;;;;;7.03;4.20;;;;;;;12.36;77.26;101240.47;5068009;28;20020;-72
2021/09/18 08:38:50;;;;;;;6.78;4.32;;;;;;;12.47;76.81;101240.47;5086214;28;20016;-71
2021/09/18 08:41:16;;;;;;;8.82;4.70;;;;;;;12.57;76.58;101243.88;5085995;28;20043;-71
2021/09/18 08:43:42;;;;;;;7.95;3.97;;;;;;;12.57;77.54;101243.88;5085871;28;20052;-71
2021/09/18 08:46:08;;;;;;;6.53;4.15;;;;;;;12.75;74.53;101255.13;5067850;28;20025;-72
2021/09/18 08:48:38;;;;;;;7.63;3.97;;;;;;;12.56;74.41;101249.09;5086102;28;20099;-71
2021/09/18 08:51:03;;;;;;;6.55;4.25;;;;;;;12.46;74.90;101249.13;5086090;28;20017;-72
2021/09/18 08:53:29;;;;;;;6.57;3.83;;;;;;;12.54;74.48;101250.88;5067680;28;20031;-71
2021/09/18 08:55:56;;;;;;;6.88;3.95;;;;;;;12.59;73.92;101249.97;5085774;28;20025;-69
2021/09/18 08:58:22;;;;;;;8.68;3.97;;;;;;;12.56;74.50;101257.78;5085748;28;20029;-70
2021/09/18 09:00:51;;;;;;;6.93;3.95;;;;;;;12.59;74.72;101249.97;5085588;28;20095;-69
2021/09/18 09:03:25;;;;;;;19.33;4.68;;;;;;;12.61;75.55;101258.66;5085634;28;20024;-70
2021/09/18 09:05:58;;;;;;;5.75;3.95;;;;;;;12.71;75.20;101253.41;5085709;28;20025;-70
2021/09/18 09:08:24;;;;;;;6.30;4.70;;;;;;;12.83;74.16;101258.56;5085551;28;20024;-70
2021/09/18 09:10:49;;;;;;;8.23;3.50;;;;;;;12.94;73.26;101253.31;5085325;28;20040;-70
2021/09/18 09:13:20;;;;;;;6.20;3.70;;;;;;;12.95;73.86;101259.41;5085518;28;20028;-70
2021/09/18 09:15:48;;;;;;;7.03;4.38;;;;;;;12.95;74.26;101246.38;5085618;28;20071;-70
2021/09/18 09:18:23;;;;;;;8.52;4.45;;;;;;;13.32;72.61;101261.78;5085574;28;20079;-70
2021/09/18 09:21:01;;;;;;;6.82;4.40;;;;;;;13.27;73.68;101259.22;5085513;28;20024;-70
2021/09/18 09:23:27;;;;;;;8.75;3.92;;;;;;;13.43;74.81;101256.53;5085061;28;20044;-70
2021/09/18 09:25:56;;;;;;;5.65;3.60;;;;;;;13.60;74.07;101256.44;5085155;28;20028;-70
2021/09/18 09:28:31;;;;;;;5.63;3.45;;;;;;;13.78;73.21;101254.56;5067109;28;20032;-70
2021/09/18 09:31:11;;;;;;;6.63;3.88;;;;;;;13.91;72.98;101244.00;5085442;28;20032;-68
2021/09/18 09:33:55;;;;;;;7.38;3.38;;;;;;;14.18;70.91;101248.13;5084784;28;20042;-67
2021/09/18 09:36:20;;;;;;;6.03;4.00;;;;;;;14.26;70.15;101255.88;5084984;28;20012;-72
2021/09/18 09:38:58;;;;;;;6.85;3.53;;;;;;;14.31;68.22;101248.84;5084879;28;20051;-72
2021/09/18 09:41:30;;;;;;;5.68;3.55;;;;;;;14.24;68.68;101261.09;5084868;28;20077;-72
2021/09/18 09:43:56;;;;;;;5.53;3.80;;;;;;;14.17;67.83;101258.56;5084891;28;20088;-70
2021/09/18 09:46:21;;;;;;;4.82;3.83;;;;;;;14.11;69.31;101260.34;5084902;28;20027;-71
2021/09/18 09:48:46;;;;;;;5.78;3.50;;;;;;;14.19;69.37;101257.66;5085209;28;20017;-71
2021/09/18 09:51:12;;;;;;;11.38;4.00;;;;;;;14.44;68.27;101267.84;5066857;28;20025;-71
2021/09/18 09:53:37;;;;;;;6.05;3.58;;;;;;;14.58;67.74;101257.28;5084722;28;20024;-70
2021/09/18 09:56:22;;;;;;;4.55;3.33;;;;;;;14.85;67.60;101249.13;5084755;28;20032;-71
2021/09/18 09:59:00;;;;;;;6.68;3.15;;;;;;;15.05;68.25;101272.41;5084867;28;20020;-71
2021/09/18 10:01:28;;;;;;;3.80;3.00;;;;;;;15.55;62.71;101263.84;5084582;28;20021;-71
2021/09/18 10:03:53;;;;;;;4.93;3.05;;;;;;;15.64;60.74;101259.38;5084293;28;20496;-73
2021/09/18 10:06:19;;;;;;;3.17;2.53;;;;;;;15.94;61.49;101259.75;5084504;28;20039;-72
2021/09/18 10:08:48;;;;;;;3.13;2.50;;;;;;;16.40;61.82;101259.81;5084402;28;20088;-68
2021/09/18 10:11:15;;;;;;;6.85;3.50;;;;;;;16.87;58.09;101248.41;5084438;28;20024;-68
2021/09/18 10:13:41;;;;;;;5.78;3.40;;;;;;;16.98;58.58;101257.75;5084016;28;20056;-69
2021/09/18 10:16:07;;;;;;;3.10;2.28;;;;;;;17.11;57.56;101256.66;5084289;28;20476;-69
2021/09/18 10:18:34;;;;;;;4.28;2.50;;;;;;;17.19;57.79;101268.72;5084235;28;20043;-68
2021/09/18 10:23:28;;;;;;;7.38;3.22;;;;;;;16.93;56.32;101262.22;5084476;28;20024;-69
2021/09/18 10:25:56;;;;;;;7.25;3.63;;;;;;;16.46;56.83;101257.06;5084210;28;20140;-68
2021/09/18 10:28:26;;;;;;;5.00;3.72;;;;;;;15.95;57.99;101257.09;5084113;28;20048;-68
2021/09/18 10:30:55;;;;;;;4.57;2.92;;;;;;;15.63;57.41;101268.09;5084153;28;20017;-68
2021/09/18 10:33:29;;;;;;;4.72;3.28;;;;;;;15.20;60.73;101275.69;5084071;28;20054;-69
2021/09/18 10:35:58;;;;;;;6.20;3.50;;;;;;;14.96;61.02;101267.28;5065900;28;20036;-68
2021/09/18 10:38:29;;;;;;;9.23;3.70;;;;;;;14.78;61.56;101274.44;5066028;28;20024;-69
2021/09/18 10:41:00;;;;;;;4.47;3.38;;;;;;;14.61;62.88;101262.47;5083686;28;20021;-68
2021/09/18 10:43:33;;;;;;;4.60;3.33;;;;;;;14.54;64.32;101279.06;5084126;28;20079;-69
2021/09/18 10:45:58;;;;;;;3.67;2.90;;;;;;;14.52;64.58;101275.59;5083232;28;20076;-69
2021/09/18 10:48:46;;;;;;;5.47;3.60;;;;;;;14.62;64.46;101274.63;5084016;28;20020;-69
2021/09/18 10:51:32;;;;;;;3.95;2.60;;;;;;;14.77;63.14;101275.34;5083839;28;20035;-69
2021/09/18 10:54:12;;;;;;;4.20;2.97;;;;;;;14.87;63.18;101282.19;5083868;28;20040;-68
2021/09/18 10:57:02;;;;;;;7.60;2.95;;;;;;;15.60;63.51;101274.25;5084727;28;20031;-68
2021/09/18 10:59:51;;;;;;;3.47;2.67;;;;;;;16.37;59.07;101278.22;5065932;28;20031;-69
2021/09/18 11:02:32;;;;;;;4.60;2.75;;;;;;;16.15;59.31;101274.22;5083988;28;20107;-68
2021/09/18 11:05:06;;;;;;;5.72;3.55;;;;;;;15.91;59.13;101275.50;5083265;28;20028;-69
2021/09/18 11:07:45;;;;;;;3.45;2.45;;;;;;;15.71;58.01;101281.91;5083704;28;20024;-69
2021/09/18 11:10:15;;;;;;;4.38;2.55;;;;;;;15.35;58.60;101269.38;5065147;28;20020;-67
2021/09/18 11:13:01;;;;;;;6.05;3.22;;;;;;;15.19;59.03;101273.97;5083636;28;20035;-68
2021/09/18 11:15:43;;;;;;;5.95;3.10;;;;;;;15.16;59.70;101260.94;5065309;28;20035;-68
2021/09/18 11:18:43;;;;;;;4.15;3.05;;;;;;;15.31;59.85;101260.72;5083814;28;20032;-69
2021/09/18 11:21:24;;;;;;;5.63;3.40;;;;;;;15.28;62.12;101268.59;5083471;28;20032;-68
2021/09/18 11:23:59;;;;;;;7.70;3.53;;;;;;;15.29;62.91;101272.09;5083476;28;20081;-69
2021/09/18 11:26:47;;;;;;;5.28;3.00;;;;;;;15.22;63.19;101273.94;5083292;28;20028;-68
2021/09/18 11:29:13;;;;;;;3.47;2.53;;;;;;;15.10;60.13;101274.94;5083435;28;20047;-68